Arsenal, Utah
Current Conditions -  °F | °C
As of 10:58 PM on Wednesday 22 Oct 2014 (Local Time) from KHIF Reporting Station
Clear Clear  
Wind Chill: 43°   Ceiling: Unl
Heat Index: 48°   Visibility: 10mi
Dew Point: 25°   Wind: 14mph
Humidity: 41%   Direction: 120°ESE
Pressure: 30.18"   Gusts: NA
Location:  41.123°N, 112.063°W
Report Text: KHIF 230458Z AUTO 12012KT 10SM CLR 09/M04 A3018 RMK AO2 SLP201 T00901038
Loading
Personal Weather Stations






























Interactive Weather Map New forecast layout! Learn more

10-Day Weather Forecast

Advertisements
Track Severe Weather on mobile